sensor_id;sensor_type;location;lat;lon;timestamp;P1;durP1;ratioP1;P2;durP2;ratioP2
67378;SDS011;54262;44.642;-0.974;2024-03-23T00:55:53;6.07;;;2.95;;
67378;SDS011;54262;44.642;-0.974;2024-03-23T00:58:19;5.15;;;2.50;;
67378;SDS011;54262;44.642;-0.974;2024-03-23T01:00:45;4.05;;;2.42;;
67378;SDS011;54262;44.642;-0.974;2024-03-23T01:03:10;2.85;;;2.65;;
67378;SDS011;54262;44.642;-0.974;2024-03-23T01:05:36;3.15;;;2.95;;
67378;SDS011;54262;44.642;-0.974;2024-03-23T01:08:02;3.17;;;1.90;;
67378;SDS011;54262;44.642;-0.974;2024-03-23T01:10:27;5.15;;;1.98;;
67378;SDS011;54262;44.642;-0.974;2024-03-23T01:12:53;2.58;;;2.38;;
67378;SDS011;54262;44.642;-0.974;2024-03-23T01:15:18;3.03;;;2.80;;
67378;SDS011;54262;44.642;-0.974;2024-03-23T01:17:44;2.47;;;1.10;;
67378;SDS011;54262;44.642;-0.974;2024-03-23T01:20:10;4.80;;;1.90;;
67378;SDS011;54262;44.642;-0.974;2024-03-23T01:22:35;3.88;;;2.42;;
67378;SDS011;54262;44.642;-0.974;2024-03-23T01:25:01;3.08;;;1.63;;
67378;SDS011;54262;44.642;-0.974;2024-03-23T01:27:27;4.10;;;2.15;;
67378;SDS011;54262;44.642;-0.974;2024-03-23T01:29:52;2.97;;;1.20;;
67378;SDS011;54262;44.642;-0.974;2024-03-23T01:32:18;5.93;;;1.52;;
67378;SDS011;54262;44.642;-0.974;2024-03-23T01:34:44;2.97;;;1.90;;
67378;SDS011;54262;44.642;-0.974;2024-03-23T01:37:10;5.80;;;2.20;;
67378;SDS011;54262;44.642;-0.974;2024-03-23T01:39:35;2.40;;;1.30;;
67378;SDS011;54262;44.642;-0.974;2024-03-23T01:42:01;3.60;;;2.08;;
67378;SDS011;54262;44.642;-0.974;2024-03-23T01:44:27;11.25;;;1.73;;
67378;SDS011;54262;44.642;-0.974;2024-03-23T01:46:55;6.03;;;1.60;;
67378;SDS011;54262;44.642;-0.974;2024-03-23T01:49:21;3.22;;;2.35;;
67378;SDS011;54262;44.642;-0.974;2024-03-23T01:51:48;4.22;;;2.17;;
67378;SDS011;54262;44.642;-0.974;2024-03-23T01:54:17;8.70;;;2.10;;
67378;SDS011;54262;44.642;-0.974;2024-03-23T01:56:44;7.57;;;2.25;;
67378;SDS011;54262;44.642;-0.974;2024-03-23T01:59:10;7.35;;;2.90;;
67378;SDS011;54262;44.642;-0.974;2024-03-23T02:01:36;6.13;;;2.65;;
67378;SDS011;54262;44.642;-0.974;2024-03-23T02:04:01;5.68;;;2.35;;
67378;SDS011;54262;44.642;-0.974;2024-03-23T02:06:27;6.55;;;2.50;;
67378;SDS011;54262;44.642;-0.974;2024-03-23T02:08:53;11.50;;;2.80;;
67378;SDS011;54262;44.642;-0.974;2024-03-23T02:11:20;5.10;;;2.42;;
67378;SDS011;54262;44.642;-0.974;2024-03-23T02:13:45;7.10;;;2.55;;
67378;SDS011;54262;44.642;-0.974;2024-03-23T02:16:11;4.63;;;2.38;;
67378;SDS011;54262;44.642;-0.974;2024-03-23T02:18:38;11.10;;;2.55;;
67378;SDS011;54262;44.642;-0.974;2024-03-23T02:21:04;12.05;;;3.20;;
67378;SDS011;54262;44.642;-0.974;2024-03-23T02:23:30;5.00;;;2.00;;
67378;SDS011;54262;44.642;-0.974;2024-03-23T02:25:56;6.63;;;2.60;;
67378;SDS011;54262;44.642;-0.974;2024-03-23T02:28:21;4.75;;;2.50;;
67378;SDS011;54262;44.642;-0.974;2024-03-23T02:30:50;11.52;;;2.63;;
67378;SDS011;54262;44.642;-0.974;2024-03-23T02:33:16;7.25;;;2.10;;
67378;SDS011;54262;44.642;-0.974;2024-03-23T02:35:43;6.90;;;2.42;;
67378;SDS011;54262;44.642;-0.974;2024-03-23T02:38:09;4.57;;;3.00;;
67378;SDS011;54262;44.642;-0.974;2024-03-23T02:40:34;11.27;;;2.83;;
67378;SDS011;54262;44.642;-0.974;2024-03-23T02:43:02;7.43;;;2.63;;
67378;SDS011;54262;44.642;-0.974;2024-03-23T02:45:30;10.43;;;2.33;;
67378;SDS011;54262;44.642;-0.974;2024-03-23T02:47:59;8.55;;;3.00;;
67378;SDS011;54262;44.642;-0.974;2024-03-23T02:50:24;7.90;;;2.35;;
67378;SDS011;54262;44.642;-0.974;2024-03-23T02:52:52;10.80;;;2.90;;
67378;SDS011;54262;44.642;-0.974;2024-03-23T02:55:17;6.22;;;2.38;;
67378;SDS011;54262;44.642;-0.974;2024-03-23T02:57:44;11.50;;;2.55;;
67378;SDS011;54262;44.642;-0.974;2024-03-23T03:00:10;6.95;;;2.97;;
67378;SDS011;54262;44.642;-0.974;2024-03-23T03:02:36;9.20;;;2.80;;
67378;SDS011;54262;44.642;-0.974;2024-03-23T03:05:02;10.20;;;2.13;;
67378;SDS011;54262;44.642;-0.974;2024-03-23T03:07:30;7.60;;;2.72;;
67378;SDS011;54262;44.642;-0.974;2024-03-23T03:09:56;8.52;;;2.72;;
67378;SDS011;54262;44.642;-0.974;2024-03-23T03:12:21;11.38;;;3.28;;
67378;SDS011;54262;44.642;-0.974;2024-03-23T03:14:47;6.43;;;2.40;;
67378;SDS011;54262;44.642;-0.974;2024-03-23T03:17:16;5.95;;;2.92;;
67378;SDS011;54262;44.642;-0.974;2024-03-23T03:19:41;6.18;;;2.85;;
67378;SDS011;54262;44.642;-0.974;2024-03-23T03:22:07;9.73;;;2.10;;
67378;SDS011;54262;44.642;-0.974;2024-03-23T03:24:33;9.07;;;2.70;;
67378;SDS011;54262;44.642;-0.974;2024-03-23T03:26:59;6.65;;;2.40;;
67378;SDS011;54262;44.642;-0.974;2024-03-23T03:29:24;4.82;;;2.50;;
67378;SDS011;54262;44.642;-0.974;2024-03-23T03:31:50;12.82;;;3.33;;
67378;SDS011;54262;44.642;-0.974;2024-03-23T03:34:16;5.93;;;2.78;;
67378;SDS011;54262;44.642;-0.974;2024-03-23T03:36:41;6.95;;;2.67;;
67378;SDS011;54262;44.642;-0.974;2024-03-23T03:39:07;10.88;;;3.05;;
67378;SDS011;54262;44.642;-0.974;2024-03-23T03:41:33;10.05;;;2.60;;
67378;SDS011;54262;44.642;-0.974;2024-03-23T03:43:58;16.25;;;3.28;;
67378;SDS011;54262;44.642;-0.974;2024-03-23T03:46:30;5.20;;;2.75;;
67378;SDS011;54262;44.642;-0.974;2024-03-23T03:48:58;6.18;;;2.58;;
67378;SDS011;54262;44.642;-0.974;2024-03-23T03:51:24;11.02;;;2.60;;
67378;SDS011;54262;44.642;-0.974;2024-03-23T03:53:51;9.18;;;3.35;;
67378;SDS011;54262;44.642;-0.974;2024-03-23T03:56:17;7.35;;;2.67;;
67378;SDS011;54262;44.642;-0.974;2024-03-23T03:58:43;10.77;;;3.15;;
67378;SDS011;54262;44.642;-0.974;2024-03-23T04:01:08;18.25;;;3.55;;
67378;SDS011;54262;44.642;-0.974;2024-03-23T04:03:34;17.85;;;3.75;;
67378;SDS011;54262;44.642;-0.974;2024-03-23T04:06:00;5.95;;;2.20;;
67378;SDS011;54262;44.642;-0.974;2024-03-23T04:08:25;8.55;;;2.90;;
67378;SDS011;54262;44.642;-0.974;2024-03-23T04:10:51;6.82;;;2.28;;
67378;SDS011;54262;44.642;-0.974;2024-03-23T04:13:16;9.27;;;2.88;;
67378;SDS011;54262;44.642;-0.974;2024-03-23T04:15:42;5.95;;;2.70;;
67378;SDS011;54262;44.642;-0.974;2024-03-23T04:18:08;14.52;;;3.13;;
67378;SDS011;54262;44.642;-0.974;2024-03-23T04:20:33;9.73;;;2.67;;
67378;SDS011;54262;44.642;-0.974;2024-03-23T04:22:59;8.20;;;2.75;;
67378;SDS011;54262;44.642;-0.974;2024-03-23T04:25:25;5.80;;;2.35;;
67378;SDS011;54262;44.642;-0.974;2024-03-23T04:27:50;8.70;;;2.70;;
67378;SDS011;54262;44.642;-0.974;2024-03-23T04:30:16;7.45;;;2.92;;
67378;SDS011;54262;44.642;-0.974;2024-03-23T04:32:42;5.43;;;2.70;;
67378;SDS011;54262;44.642;-0.974;2024-03-23T04:35:08;8.93;;;3.10;;
67378;SDS011;54262;44.642;-0.974;2024-03-23T04:37:38;7.13;;;3.15;;
67378;SDS011;54262;44.642;-0.974;2024-03-23T04:40:06;6.97;;;3.05;;
67378;SDS011;54262;44.642;-0.974;2024-03-23T04:42:32;3.30;;;2.47;;
67378;SDS011;54262;44.642;-0.974;2024-03-23T04:45:01;8.13;;;3.00;;
67378;SDS011;54262;44.642;-0.974;2024-03-23T04:47:27;12.20;;;2.83;;
67378;SDS011;54262;44.642;-0.974;2024-03-23T04:49:55;13.48;;;3.17;;
67378;SDS011;54262;44.642;-0.974;2024-03-23T04:52:21;10.02;;;2.78;;
67378;SDS011;54262;44.642;-0.974;2024-03-23T04:54:48;13.68;;;2.72;;
67378;SDS011;54262;44.642;-0.974;2024-03-23T04:57:14;7.00;;;3.13;;
67378;SDS011;54262;44.642;-0.974;2024-03-23T04:59:41;10.70;;;2.92;;
67378;SDS011;54262;44.642;-0.974;2024-03-23T05:02:07;7.35;;;2.83;;
67378;SDS011;54262;44.642;-0.974;2024-03-23T05:04:32;9.23;;;3.15;;
67378;SDS011;54262;44.642;-0.974;2024-03-23T05:06:58;4.75;;;2.22;;
67378;SDS011;54262;44.642;-0.974;2024-03-23T05:09:24;9.20;;;2.88;;
67378;SDS011;54262;44.642;-0.974;2024-03-23T05:11:50;10.18;;;2.97;;
67378;SDS011;54262;44.642;-0.974;2024-03-23T05:14:15;10.35;;;3.30;;
67378;SDS011;54262;44.642;-0.974;2024-03-23T05:16:41;18.35;;;3.40;;
67378;SDS011;54262;44.642;-0.974;2024-03-23T05:19:06;15.13;;;3.60;;
67378;SDS011;54262;44.642;-0.974;2024-03-23T05:21:32;8.35;;;2.65;;
67378;SDS011;54262;44.642;-0.974;2024-03-23T05:23:58;7.28;;;2.70;;
67378;SDS011;54262;44.642;-0.974;2024-03-23T05:26:23;10.13;;;3.00;;
67378;SDS011;54262;44.642;-0.974;2024-03-23T05:28:49;10.55;;;2.45;;
67378;SDS011;54262;44.642;-0.974;2024-03-23T05:31:24;9.45;;;3.03;;
67378;SDS011;54262;44.642;-0.974;2024-03-23T05:33:50;5.22;;;2.28;;
67378;SDS011;54262;44.642;-0.974;2024-03-23T05:36:16;8.52;;;2.63;;
67378;SDS011;54262;44.642;-0.974;2024-03-23T05:38:42;10.07;;;3.88;;
67378;SDS011;54262;44.642;-0.974;2024-03-23T05:41:08;10.80;;;3.45;;
67378;SDS011;54262;44.642;-0.974;2024-03-23T05:43:34;7.63;;;2.65;;
67378;SDS011;54262;44.642;-0.974;2024-03-23T05:46:00;8.25;;;3.40;;
67378;SDS011;54262;44.642;-0.974;2024-03-23T05:48:32;9.80;;;2.55;;
67378;SDS011;54262;44.642;-0.974;2024-03-23T05:51:00;6.07;;;2.20;;
67378;SDS011;54262;44.642;-0.974;2024-03-23T05:53:26;6.70;;;2.03;;
67378;SDS011;54262;44.642;-0.974;2024-03-23T05:56:01;7.25;;;2.80;;
67378;SDS011;54262;44.642;-0.974;2024-03-23T05:58:31;7.72;;;2.30;;
67378;SDS011;54262;44.642;-0.974;2024-03-23T06:00:58;7.40;;;2.67;;
67378;SDS011;54262;44.642;-0.974;2024-03-23T06:03:25;10.15;;;3.00;;
67378;SDS011;54262;44.642;-0.974;2024-03-23T06:05:51;9.23;;;2.75;;
67378;SDS011;54262;44.642;-0.974;2024-03-23T06:08:18;10.07;;;2.67;;
67378;SDS011;54262;44.642;-0.974;2024-03-23T06:10:44;7.70;;;2.33;;
67378;SDS011;54262;44.642;-0.974;2024-03-23T06:13:10;7.55;;;2.38;;
67378;SDS011;54262;44.642;-0.974;2024-03-23T06:15:36;7.85;;;2.50;;
67378;SDS011;54262;44.642;-0.974;2024-03-23T06:18:02;9.27;;;2.30;;
67378;SDS011;54262;44.642;-0.974;2024-03-23T06:20:29;8.20;;;2.80;;
67378;SDS011;54262;44.642;-0.974;2024-03-23T06:22:55;11.60;;;3.80;;
67378;SDS011;54262;44.642;-0.974;2024-03-23T06:25:21;6.57;;;2.97;;
67378;SDS011;54262;44.642;-0.974;2024-03-23T06:27:46;6.85;;;2.55;;
67378;SDS011;54262;44.642;-0.974;2024-03-23T06:30:12;5.75;;;2.78;;
67378;SDS011;54262;44.642;-0.974;2024-03-23T06:32:38;9.88;;;3.90;;
67378;SDS011;54262;44.642;-0.974;2024-03-23T06:35:03;9.73;;;2.90;;
67378;SDS011;54262;44.642;-0.974;2024-03-23T06:37:37;9.82;;;2.63;;
67378;SDS011;54262;44.642;-0.974;2024-03-23T06:40:04;8.75;;;2.70;;
67378;SDS011;54262;44.642;-0.974;2024-03-23T06:42:33;10.23;;;3.00;;
67378;SDS011;54262;44.642;-0.974;2024-03-23T06:44:59;9.52;;;2.97;;
67378;SDS011;54262;44.642;-0.974;2024-03-23T06:47:25;7.10;;;2.40;;
67378;SDS011;54262;44.642;-0.974;2024-03-23T06:49:50;11.52;;;2.97;;
67378;SDS011;54262;44.642;-0.974;2024-03-23T06:52:18;12.85;;;3.40;;
67378;SDS011;54262;44.642;-0.974;2024-03-23T06:54:44;10.57;;;2.60;;
67378;SDS011;54262;44.642;-0.974;2024-03-23T06:57:12;13.20;;;3.13;;
67378;SDS011;54262;44.642;-0.974;2024-03-23T06:59:37;4.57;;;2.33;;
67378;SDS011;54262;44.642;-0.974;2024-03-23T07:02:08;9.60;;;2.90;;
67378;SDS011;54262;44.642;-0.974;2024-03-23T07:04:35;3.92;;;2.03;;
67378;SDS011;54262;44.642;-0.974;2024-03-23T07:07:01;6.95;;;2.35;;
67378;SDS011;54262;44.642;-0.974;2024-03-23T07:09:29;4.45;;;2.30;;
67378;SDS011;54262;44.642;-0.974;2024-03-23T07:11:55;4.95;;;2.35;;
67378;SDS011;54262;44.642;-0.974;2024-03-23T07:14:22;8.80;;;2.40;;
67378;SDS011;54262;44.642;-0.974;2024-03-23T07:16:49;7.97;;;2.45;;
67378;SDS011;54262;44.642;-0.974;2024-03-23T07:19:15;2.33;;;1.90;;
67378;SDS011;54262;44.642;-0.974;2024-03-23T07:21:44;6.30;;;2.17;;
67378;SDS011;54262;44.642;-0.974;2024-03-23T07:24:10;6.80;;;2.85;;
67378;SDS011;54262;44.642;-0.974;2024-03-23T07:26:37;3.22;;;2.25;;
67378;SDS011;54262;44.642;-0.974;2024-03-23T07:29:03;7.00;;;2.00;;
67378;SDS011;54262;44.642;-0.974;2024-03-23T07:31:32;5.18;;;2.53;;
67378;SDS011;54262;44.642;-0.974;2024-03-23T07:33:58;4.15;;;2.42;;
67378;SDS011;54262;44.642;-0.974;2024-03-23T07:36:24;3.30;;;2.15;;
67378;SDS011;54262;44.642;-0.974;2024-03-23T07:38:50;8.10;;;2.40;;
67378;SDS011;54262;44.642;-0.974;2024-03-23T07:41:16;7.03;;;2.20;;
67378;SDS011;54262;44.642;-0.974;2024-03-23T07:43:43;7.10;;;2.13;;
67378;SDS011;54262;44.642;-0.974;2024-03-23T07:46:10;3.35;;;2.00;;
67378;SDS011;54262;44.642;-0.974;2024-03-23T07:48:37;7.20;;;2.78;;
67378;SDS011;54262;44.642;-0.974;2024-03-23T07:51:07;7.72;;;2.75;;
67378;SDS011;54262;44.642;-0.974;2024-03-23T07:53:37;5.47;;;2.08;;
67378;SDS011;54262;44.642;-0.974;2024-03-23T07:56:06;4.43;;;2.30;;
67378;SDS011;54262;44.642;-0.974;2024-03-23T07:58:35;13.90;;;3.00;;
67378;SDS011;54262;44.642;-0.974;2024-03-23T08:01:05;11.18;;;3.03;;
67378;SDS011;54262;44.642;-0.974;2024-03-23T08:03:39;4.38;;;1.75;;
67378;SDS011;54262;44.642;-0.974;2024-03-23T08:06:09;9.43;;;2.65;;
67378;SDS011;54262;44.642;-0.974;2024-03-23T08:08:35;4.88;;;2.40;;
67378;SDS011;54262;44.642;-0.974;2024-03-23T08:11:01;5.60;;;2.20;;
67378;SDS011;54262;44.642;-0.974;2024-03-23T08:13:27;6.30;;;2.25;;
67378;SDS011;54262;44.642;-0.974;2024-03-23T08:15:56;8.60;;;2.40;;
67378;SDS011;54262;44.642;-0.974;2024-03-23T08:18:25;7.10;;;2.30;;
67378;SDS011;54262;44.642;-0.974;2024-03-23T08:23:26;5.00;;;1.98;;
67378;SDS011;54262;44.642;-0.974;2024-03-23T08:25:59;4.40;;;2.13;;
67378;SDS011;54262;44.642;-0.974;2024-03-23T08:28:26;8.77;;;2.55;;
67378;SDS011;54262;44.642;-0.974;2024-03-23T08:30:53;11.52;;;2.33;;
67378;SDS011;54262;44.642;-0.974;2024-03-23T08:33:19;6.25;;;1.90;;
67378;SDS011;54262;44.642;-0.974;2024-03-23T08:35:55;6.13;;;2.13;;
67378;SDS011;54262;44.642;-0.974;2024-03-23T08:38:24;6.03;;;1.80;;
67378;SDS011;54262;44.642;-0.974;2024-03-23T08:41:01;7.15;;;2.17;;
67378;SDS011;54262;44.642;-0.974;2024-03-23T08:43:37;6.60;;;2.20;;
67378;SDS011;54262;44.642;-0.974;2024-03-23T08:46:04;4.32;;;2.53;;
67378;SDS011;54262;44.642;-0.974;2024-03-23T08:48:46;5.57;;;2.20;;
67378;SDS011;54262;44.642;-0.974;2024-03-23T08:51:14;8.45;;;2.53;;
67378;SDS011;54262;44.642;-0.974;2024-03-23T08:53:43;2.90;;;2.10;;
67378;SDS011;54262;44.642;-0.974;2024-03-23T08:56:09;4.28;;;1.95;;
67378;SDS011;54262;44.642;-0.974;2024-03-23T08:58:37;4.22;;;1.90;;
67378;SDS011;54262;44.642;-0.974;2024-03-23T09:01:08;4.13;;;1.80;;
67378;SDS011;54262;44.642;-0.974;2024-03-23T09:03:35;5.07;;;1.95;;
67378;SDS011;54262;44.642;-0.974;2024-03-23T09:06:02;4.35;;;1.85;;
67378;SDS011;54262;44.642;-0.974;2024-03-23T09:08:32;2.70;;;1.67;;
67378;SDS011;54262;44.642;-0.974;2024-03-23T09:10:57;3.53;;;2.00;;
67378;SDS011;54262;44.642;-0.974;2024-03-23T09:13:28;4.05;;;2.17;;
67378;SDS011;54262;44.642;-0.974;2024-03-23T09:15:53;7.03;;;1.77;;
67378;SDS011;54262;44.642;-0.974;2024-03-23T09:18:21;10.20;;;2.60;;
67378;SDS011;54262;44.642;-0.974;2024-03-23T09:20:47;7.88;;;2.05;;
67378;SDS011;54262;44.642;-0.974;2024-03-23T09:23:12;6.80;;;2.17;;
67378;SDS011;54262;44.642;-0.974;2024-03-23T09:25:38;2.78;;;1.80;;
67378;SDS011;54262;44.642;-0.974;2024-03-23T09:28:05;6.75;;;2.30;;
67378;SDS011;54262;44.642;-0.974;2024-03-23T09:30:32;4.43;;;1.90;;
67378;SDS011;54262;44.642;-0.974;2024-03-23T09:33:07;5.55;;;2.28;;
67378;SDS011;54262;44.642;-0.974;2024-03-23T09:35:36;7.75;;;2.38;;
67378;SDS011;54262;44.642;-0.974;2024-03-23T09:38:02;3.95;;;2.08;;
67378;SDS011;54262;44.642;-0.974;2024-03-23T09:40:28;14.43;;;2.45;;
67378;SDS011;54262;44.642;-0.974;2024-03-23T09:42:53;8.05;;;2.20;;
67378;SDS011;54262;44.642;-0.974;2024-03-23T09:45:21;4.63;;;2.10;;
67378;SDS011;54262;44.642;-0.974;2024-03-23T09:47:51;5.68;;;1.92;;
67378;SDS011;54262;44.642;-0.974;2024-03-23T09:50:18;8.05;;;2.33;;
67378;SDS011;54262;44.642;-0.974;2024-03-23T09:52:45;4.97;;;2.13;;
67378;SDS011;54262;44.642;-0.974;2024-03-23T09:55:14;6.45;;;2.03;;
67378;SDS011;54262;44.642;-0.974;2024-03-23T09:57:40;3.92;;;1.77;;
67378;SDS011;54262;44.642;-0.974;2024-03-23T10:00:09;3.25;;;1.98;;
67378;SDS011;54262;44.642;-0.974;2024-03-23T10:02:37;9.23;;;2.53;;
67378;SDS011;54262;44.642;-0.974;2024-03-23T10:05:03;4.85;;;2.28;;
67378;SDS011;54262;44.642;-0.974;2024-03-23T10:07:29;2.78;;;1.92;;
67378;SDS011;54262;44.642;-0.974;2024-03-23T10:09:55;11.98;;;2.22;;
67378;SDS011;54262;44.642;-0.974;2024-03-23T10:12:21;4.10;;;1.73;;
67378;SDS011;54262;44.642;-0.974;2024-03-23T10:14:47;3.40;;;2.00;;
67378;SDS011;54262;44.642;-0.974;2024-03-23T10:19:46;5.18;;;1.85;;
67378;SDS011;54262;44.642;-0.974;2024-03-23T10:22:19;9.55;;;2.65;;
67378;SDS011;54262;44.642;-0.974;2024-03-23T10:24:45;8.65;;;2.38;;
67378;SDS011;54262;44.642;-0.974;2024-03-23T10:27:15;9.50;;;1.73;;
67378;SDS011;54262;44.642;-0.974;2024-03-23T10:29:45;8.10;;;2.55;;
67378;SDS011;54262;44.642;-0.974;2024-03-23T10:32:12;3.92;;;1.42;;
67378;SDS011;54262;44.642;-0.974;2024-03-23T10:34:39;4.18;;;2.30;;
67378;SDS011;54262;44.642;-0.974;2024-03-23T10:37:05;9.80;;;2.42;;
67378;SDS011;54262;44.642;-0.974;2024-03-23T10:39:34;8.40;;;2.25;;
67378;SDS011;54262;44.642;-0.974;2024-03-23T10:42:02;8.80;;;2.63;;
67378;SDS011;54262;44.642;-0.974;2024-03-23T10:44:29;5.88;;;2.08;;
67378;SDS011;54262;44.642;-0.974;2024-03-23T10:46:59;6.05;;;2.10;;
67378;SDS011;54262;44.642;-0.974;2024-03-23T10:49:29;4.75;;;2.42;;
67378;SDS011;54262;44.642;-0.974;2024-03-23T10:51:59;9.98;;;2.60;;
67378;SDS011;54262;44.642;-0.974;2024-03-23T10:54:25;6.32;;;2.58;;
67378;SDS011;54262;44.642;-0.974;2024-03-23T10:56:53;3.30;;;1.60;;
67378;SDS011;54262;44.642;-0.974;2024-03-23T10:59:39;4.63;;;1.77;;
67378;SDS011;54262;44.642;-0.974;2024-03-23T11:02:08;5.20;;;1.85;;
67378;SDS011;54262;44.642;-0.974;2024-03-23T11:04:44;9.50;;;2.35;;
67378;SDS011;54262;44.642;-0.974;2024-03-23T11:07:31;3.75;;;1.92;;
67378;SDS011;54262;44.642;-0.974;2024-03-23T11:09:59;6.05;;;1.85;;
67378;SDS011;54262;44.642;-0.974;2024-03-23T11:12:28;3.05;;;1.63;;
67378;SDS011;54262;44.642;-0.974;2024-03-23T11:15:04;4.13;;;2.17;;
67378;SDS011;54262;44.642;-0.974;2024-03-23T11:17:36;6.57;;;1.92;;
67378;SDS011;54262;44.642;-0.974;2024-03-23T11:20:02;5.25;;;2.13;;
67378;SDS011;54262;44.642;-0.974;2024-03-23T11:25:17;3.97;;;1.77;;
67378;SDS011;54262;44.642;-0.974;2024-03-23T11:27:44;10.65;;;2.40;;
67378;SDS011;54262;44.642;-0.974;2024-03-23T11:32:46;3.38;;;1.88;;
67378;SDS011;54262;44.642;-0.974;2024-03-23T11:35:34;7.82;;;2.13;;
67378;SDS011;54262;44.642;-0.974;2024-03-23T11:38:16;7.63;;;2.25;;
67378;SDS011;54262;44.642;-0.974;2024-03-23T11:40:46;4.05;;;2.05;;
67378;SDS011;54262;44.642;-0.974;2024-03-23T11:45:39;7.55;;;2.22;;
67378;SDS011;54262;44.642;-0.974;2024-03-23T11:48:12;12.00;;;1.70;;
67378;SDS011;54262;44.642;-0.974;2024-03-23T11:50:44;4.15;;;1.92;;
67378;SDS011;54262;44.642;-0.974;2024-03-23T11:55:48;6.00;;;2.95;;
67378;SDS011;54262;44.642;-0.974;2024-03-23T11:58:28;9.18;;;2.45;;
67378;SDS011;54262;44.642;-0.974;2024-03-23T12:01:01;3.35;;;1.77;;
67378;SDS011;54262;44.642;-0.974;2024-03-23T12:03:30;7.65;;;1.92;;
67378;SDS011;54262;44.642;-0.974;2024-03-23T12:05:58;2.22;;;1.45;;
67378;SDS011;54262;44.642;-0.974;2024-03-23T12:08:30;3.55;;;1.90;;
67378;SDS011;54262;44.642;-0.974;2024-03-23T12:13:39;6.35;;;1.67;;
67378;SDS011;54262;44.642;-0.974;2024-03-23T12:16:13;7.82;;;1.80;;
67378;SDS011;54262;44.642;-0.974;2024-03-23T12:18:43;6.18;;;1.67;;
67378;SDS011;54262;44.642;-0.974;2024-03-23T12:21:09;3.10;;;1.88;;
67378;SDS011;54262;44.642;-0.974;2024-03-23T12:23:35;5.20;;;2.03;;
67378;SDS011;54262;44.642;-0.974;2024-03-23T12:26:03;3.80;;;1.90;;
67378;SDS011;54262;44.642;-0.974;2024-03-23T12:28:29;3.33;;;1.80;;
67378;SDS011;54262;44.642;-0.974;2024-03-23T12:30:55;3.13;;;1.80;;
67378;SDS011;54262;44.642;-0.974;2024-03-23T12:33:21;2.72;;;1.83;;
67378;SDS011;54262;44.642;-0.974;2024-03-23T12:35:47;7.70;;;1.73;;
67378;SDS011;54262;44.642;-0.974;2024-03-23T12:38:13;3.55;;;1.30;;
67378;SDS011;54262;44.642;-0.974;2024-03-23T12:40:39;3.83;;;1.92;;
67378;SDS011;54262;44.642;-0.974;2024-03-23T12:43:05;3.78;;;1.83;;
67378;SDS011;54262;44.642;-0.974;2024-03-23T12:45:32;2.47;;;1.48;;
67378;SDS011;54262;44.642;-0.974;2024-03-23T12:47:57;5.05;;;1.52;;
67378;SDS011;54262;44.642;-0.974;2024-03-23T12:50:23;2.92;;;1.00;;
67378;SDS011;54262;44.642;-0.974;2024-03-23T12:52:48;2.15;;;1.83;;
67378;SDS011;54262;44.642;-0.974;2024-03-23T12:55:14;1.77;;;1.00;;
67378;SDS011;54262;44.642;-0.974;2024-03-23T12:57:43;2.33;;;1.65;;
67378;SDS011;54262;44.642;-0.974;2024-03-23T13:00:10;5.15;;;1.23;;
67378;SDS011;54262;44.642;-0.974;2024-03-23T13:02:37;3.42;;;1.50;;
67378;SDS011;54262;44.642;-0.974;2024-03-23T13:05:06;3.50;;;1.67;;
67378;SDS011;54262;44.642;-0.974;2024-03-23T13:07:33;4.10;;;1.40;;
67378;SDS011;54262;44.642;-0.974;2024-03-23T13:10:00;2.72;;;1.10;;
67378;SDS011;54262;44.642;-0.974;2024-03-23T13:12:26;1.48;;;1.10;;
67378;SDS011;54262;44.642;-0.974;2024-03-23T13:14:51;1.55;;;1.05;;
67378;SDS011;54262;44.642;-0.974;2024-03-23T13:17:17;4.03;;;1.65;;
67378;SDS011;54262;44.642;-0.974;2024-03-23T13:19:43;2.78;;;1.38;;
67378;SDS011;54262;44.642;-0.974;2024-03-23T13:22:09;1.77;;;1.20;;
67378;SDS011;54262;44.642;-0.974;2024-03-23T13:24:36;2.13;;;1.13;;
67378;SDS011;54262;44.642;-0.974;2024-03-23T13:27:02;2.90;;;1.13;;
67378;SDS011;54262;44.642;-0.974;2024-03-23T13:29:29;2.47;;;0.98;;
67378;SDS011;54262;44.642;-0.974;2024-03-23T13:31:55;2.00;;;1.15;;
67378;SDS011;54262;44.642;-0.974;2024-03-23T13:34:20;3.00;;;1.10;;
67378;SDS011;54262;44.642;-0.974;2024-03-23T13:36:46;4.15;;;1.13;;
67378;SDS011;54262;44.642;-0.974;2024-03-23T13:39:12;1.50;;;1.05;;
67378;SDS011;54262;44.642;-0.974;2024-03-23T13:41:41;3.15;;;1.15;;
67378;SDS011;54262;44.642;-0.974;2024-03-23T13:44:08;2.00;;;1.67;;
67378;SDS011;54262;44.642;-0.974;2024-03-23T13:46:37;2.83;;;1.33;;
67378;SDS011;54262;44.642;-0.974;2024-03-23T13:49:18;2.42;;;1.00;;
67378;SDS011;54262;44.642;-0.974;2024-03-23T13:51:51;2.20;;;1.02;;
67378;SDS011;54262;44.642;-0.974;2024-03-23T13:54:17;3.85;;;1.52;;
67378;SDS011;54262;44.642;-0.974;2024-03-23T13:56:43;1.75;;;1.15;;
67378;SDS011;54262;44.642;-0.974;2024-03-23T13:59:09;2.35;;;1.25;;
67378;SDS011;54262;44.642;-0.974;2024-03-23T14:01:37;1.95;;;1.15;;
67378;SDS011;54262;44.642;-0.974;2024-03-23T14:04:03;1.88;;;1.35;;
67378;SDS011;54262;44.642;-0.974;2024-03-23T14:06:31;3.05;;;1.13;;
67378;SDS011;54262;44.642;-0.974;2024-03-23T14:08:57;2.75;;;1.23;;
67378;SDS011;54262;44.642;-0.974;2024-03-23T14:11:22;2.40;;;1.10;;
67378;SDS011;54262;44.642;-0.974;2024-03-23T14:13:48;2.53;;;1.45;;
67378;SDS011;54262;44.642;-0.974;2024-03-23T14:16:13;5.43;;;1.42;;
67378;SDS011;54262;44.642;-0.974;2024-03-23T14:18:39;1.85;;;0.90;;
67378;SDS011;54262;44.642;-0.974;2024-03-23T14:21:04;3.38;;;1.25;;
67378;SDS011;54262;44.642;-0.974;2024-03-23T14:23:33;1.52;;;0.85;;
67378;SDS011;54262;44.642;-0.974;2024-03-23T14:25:59;2.78;;;1.17;;
67378;SDS011;54262;44.642;-0.974;2024-03-23T14:28:25;3.15;;;1.02;;
67378;SDS011;54262;44.642;-0.974;2024-03-23T14:30:51;8.73;;;1.52;;
67378;SDS011;54262;44.642;-0.974;2024-03-23T14:33:20;2.65;;;1.10;;
67378;SDS011;54262;44.642;-0.974;2024-03-23T14:35:52;2.30;;;1.60;;
67378;SDS011;54262;44.642;-0.974;2024-03-23T14:38:22;2.53;;;1.13;;
67378;SDS011;54262;44.642;-0.974;2024-03-23T14:40:48;2.10;;;1.33;;
67378;SDS011;54262;44.642;-0.974;2024-03-23T14:43:17;1.90;;;1.08;;
67378;SDS011;54262;44.642;-0.974;2024-03-23T14:46:05;2.28;;;1.42;;
67378;SDS011;54262;44.642;-0.974;2024-03-23T14:48:32;3.00;;;1.10;;
67378;SDS011;54262;44.642;-0.974;2024-03-23T14:50:59;3.90;;;1.40;;
67378;SDS011;54262;44.642;-0.974;2024-03-23T14:53:25;1.23;;;0.77;;
67378;SDS011;54262;44.642;-0.974;2024-03-23T14:55:55;2.20;;;1.30;;
67378;SDS011;54262;44.642;-0.974;2024-03-23T14:58:21;2.10;;;1.00;;
67378;SDS011;54262;44.642;-0.974;2024-03-23T15:00:47;6.40;;;1.75;;
67378;SDS011;54262;44.642;-0.974;2024-03-23T15:03:16;2.05;;;0.90;;
67378;SDS011;54262;44.642;-0.974;2024-03-23T15:05:41;5.43;;;1.02;;
67378;SDS011;54262;44.642;-0.974;2024-03-23T15:08:09;1.20;;;0.93;;
67378;SDS011;54262;44.642;-0.974;2024-03-23T15:10:36;1.92;;;1.38;;
67378;SDS011;54262;44.642;-0.974;2024-03-23T15:13:01;2.47;;;1.17;;
67378;SDS011;54262;44.642;-0.974;2024-03-23T15:15:28;2.15;;;1.30;;
67378;SDS011;54262;44.642;-0.974;2024-03-23T15:17:53;2.83;;;1.38;;
67378;SDS011;54262;44.642;-0.974;2024-03-23T15:20:19;1.58;;;1.13;;
67378;SDS011;54262;44.642;-0.974;2024-03-23T15:22:44;2.15;;;0.98;;
67378;SDS011;54262;44.642;-0.974;2024-03-23T15:25:10;2.17;;;0.82;;
67378;SDS011;54262;44.642;-0.974;2024-03-23T15:27:35;2.13;;;1.40;;
67378;SDS011;54262;44.642;-0.974;2024-03-23T15:30:01;2.45;;;1.15;;
67378;SDS011;54262;44.642;-0.974;2024-03-23T15:32:27;2.35;;;1.08;;
67378;SDS011;54262;44.642;-0.974;2024-03-23T15:34:52;2.33;;;1.30;;
67378;SDS011;54262;44.642;-0.974;2024-03-23T15:37:18;0.80;;;0.65;;
67378;SDS011;54262;44.642;-0.974;2024-03-23T15:39:44;1.52;;;0.88;;
67378;SDS011;54262;44.642;-0.974;2024-03-23T15:42:09;2.17;;;1.13;;
67378;SDS011;54262;44.642;-0.974;2024-03-23T15:44:35;1.60;;;1.00;;
67378;SDS011;54262;44.642;-0.974;2024-03-23T15:47:01;1.52;;;1.00;;